CheckWX is a tool to help pilots better visualize weather data.  It is not intended as a substitute for an official pre-flight weather briefing.

04:01:44 UTC

KAEX METAR
Alexandria International Airport
Alexandria, Louisiana, USA
Current

9 mins ago

KAEX 250353Z 14008KT 9SM FEW027 SCT036 21/18 A2984 RMK AO2 SLP107 T02110183
Observed
Apr-25 @ 03:53 UTC
Wind
  • 140° at 8 KTS
Visibility
9 SM
Flight Rules
VFR
Cloud Levels
  • Few at 2,700' AGL
  • Scattered at 3,600' AGL
Temperature
21°C / 70°F
Dewpoint
18°C / 64°F
Humidity
83%
Altimeter
29.84" Hg
Pressure
1010.52 hPa
Previous

1 hour ago

KAEX 250253Z 16007KT 10SM SCT080 21/18 A2984 RMK AO2 SLP108 T02110178 53009
Observed
Apr-25 @ 02:53 UTC
Wind
  • 160° at 7 KTS
Visibility
10 SM
Flight Rules
VFR
Cloud Levels
  • Scattered at 8,000' AGL
Temperature
21°C / 70°F
Dewpoint
18°C / 64°F
Humidity
83%
Altimeter
29.84" Hg
Pressure
1010.52 hPa
Previous

2 hours ago

KAEX 250153Z 15005KT 10SM CLR 21/18 A2983 RMK AO2 SLP104 T02110178
Observed
Apr-25 @ 01:53 UTC
Wind
  • 150° at 5 KTS
Visibility
10 SM
Flight Rules
VFR
Cloud Levels
  • Clear skies
Temperature
21°C / 70°F
Dewpoint
18°C / 64°F
Humidity
83%
Altimeter
29.83" Hg
Pressure
1010.12 hPa